createdAt,value
2023-10-11T00:00:54.383Z,9.23
2023-10-11T00:03:48.220Z,10.03
2023-10-11T00:06:16.720Z,9.67
2023-10-11T00:08:44.492Z,11.43
2023-10-11T00:11:12.793Z,13.27
2023-10-11T00:13:42.032Z,15.33
2023-10-11T00:16:11.024Z,13.17
2023-10-11T00:18:43.182Z,14.40
2023-10-11T00:21:11.927Z,11.43
2023-10-11T00:23:43.779Z,14.07
2023-10-11T00:26:12.001Z,11.37
2023-10-11T00:28:45.752Z,13.00
2023-10-11T00:31:18.540Z,13.40
2023-10-11T00:33:46.998Z,13.67
2023-10-11T00:36:17.369Z,13.23
2023-10-11T00:38:50.018Z,14.10
2023-10-11T00:41:22.409Z,10.60
2023-10-11T00:43:53.000Z,12.17
2023-10-11T00:46:23.503Z,13.53
2023-10-11T00:48:56.027Z,10.70
2023-10-11T00:51:27.552Z,14.33
2023-10-11T00:53:55.840Z,15.63
2023-10-11T00:56:23.778Z,10.53
2023-10-11T00:58:51.701Z,11.80
2023-10-11T01:01:19.364Z,10.73
2023-10-11T01:03:47.928Z,12.77
2023-10-11T01:06:15.476Z,10.50
2023-10-11T01:08:43.031Z,10.63
2023-10-11T01:11:14.080Z,10.90
2023-10-11T01:13:41.891Z,12.50
2023-10-11T01:16:10.788Z,14.23
2023-10-11T01:18:42.397Z,13.13
2023-10-11T01:21:10.448Z,12.50
2023-10-11T01:23:38.151Z,13.27
2023-10-11T01:26:09.034Z,19.43
2023-10-11T01:28:42.205Z,18.13
2023-10-11T01:31:10.410Z,16.53
2023-10-11T01:33:44.656Z,16.70
2023-10-11T01:36:22.644Z,15.70
2023-10-11T01:38:50.651Z,12.60
2023-10-11T01:41:21.288Z,12.13
2023-10-11T01:43:51.157Z,12.97
2023-10-11T01:46:25.881Z,9.80
2023-10-11T01:48:54.061Z,10.73
2023-10-11T01:51:28.116Z,14.80
2023-10-11T01:54:02.709Z,9.53
2023-10-11T01:56:31.866Z,14.37
2023-10-11T01:59:03.016Z,9.20
2023-10-11T02:01:53.929Z,9.43
2023-10-11T02:04:21.701Z,12.27
2023-10-11T02:06:50.712Z,9.63
2023-10-11T02:09:23.258Z,9.67
2023-10-11T02:11:55.342Z,16.10
2023-10-11T02:14:24.246Z,15.43
2023-10-11T02:16:54.677Z,18.90
2023-10-11T02:19:24.970Z,18.37
2023-10-11T02:21:55.758Z,18.00
2023-10-11T02:24:27.020Z,22.47
2023-10-11T02:26:56.528Z,20.13
2023-10-11T02:29:27.420Z,19.17
2023-10-11T02:31:56.305Z,23.90
2023-10-11T02:34:24.829Z,25.97
2023-10-11T02:37:11.820Z,48.77
2023-10-11T02:39:45.674Z,29.13
2023-10-11T02:42:14.210Z,24.97
2023-10-11T02:44:42.408Z,22.03
2023-10-11T02:47:10.753Z,29.97
2023-10-11T02:49:38.670Z,50.63
2023-10-11T02:52:09.676Z,27.47
2023-10-11T02:54:41.357Z,36.07
2023-10-11T02:57:21.935Z,32.03
2023-10-11T02:59:53.970Z,44.63
2023-10-11T03:02:23.175Z,30.40
2023-10-11T03:04:52.418Z,40.20
2023-10-11T03:07:23.844Z,50.47
2023-10-11T03:09:55.813Z,57.73
2023-10-11T03:12:35.100Z,22.10
2023-10-11T03:15:13.633Z,28.17
2023-10-11T03:17:45.843Z,13.10
2023-10-11T03:20:36.932Z,22.07
2023-10-11T03:23:12.121Z,29.97
2023-10-11T03:25:40.116Z,21.20
2023-10-11T03:28:08.653Z,22.77
2023-10-11T03:30:39.882Z,26.20
2023-10-11T03:33:08.502Z,23.13
2023-10-11T03:35:39.452Z,20.27
2023-10-11T03:38:18.892Z,13.83
2023-10-11T03:40:56.118Z,24.67
2023-10-11T03:43:27.704Z,16.67
2023-10-11T03:46:00.662Z,13.00
2023-10-11T03:48:35.945Z,12.13
2023-10-11T03:51:08.305Z,33.10
2023-10-11T03:53:40.680Z,23.53
2023-10-11T03:56:08.933Z,33.57
2023-10-11T03:58:39.137Z,22.43
2023-10-11T04:01:13.154Z,39.30
2023-10-11T04:03:41.590Z,29.20
2023-10-11T04:06:16.179Z,31.80
2023-10-11T04:08:45.170Z,63.67
2023-10-11T04:11:19.652Z,22.83
2023-10-11T04:13:47.947Z,57.53
2023-10-11T04:16:18.725Z,29.43
2023-10-11T04:18:47.714Z,22.33
2023-10-11T04:21:27.536Z,18.87
2023-10-11T04:23:57.410Z,20.47
2023-10-11T04:26:35.368Z,19.17
2023-10-11T04:29:18.260Z,19.77
2023-10-11T04:31:56.940Z,20.63
2023-10-11T04:34:24.923Z,24.93
2023-10-11T04:36:56.698Z,19.40
2023-10-11T04:39:51.136Z,22.13
2023-10-11T04:42:22.183Z,19.03
2023-10-11T04:44:56.208Z,45.17
2023-10-11T04:47:25.385Z,17.60
2023-10-11T04:49:53.476Z,25.70
2023-10-11T04:52:38.087Z,29.50
2023-10-11T04:55:13.779Z,16.83
2023-10-11T04:58:05.462Z,31.53
2023-10-11T05:00:45.493Z,19.20
2023-10-11T05:03:13.636Z,44.17
2023-10-11T05:05:59.378Z,31.03
2023-10-11T05:08:50.250Z,31.10
2023-10-11T05:11:41.085Z,20.57
2023-10-11T05:14:28.461Z,24.77
2023-10-11T05:17:34.791Z,15.60
2023-10-11T05:20:25.578Z,14.77
2023-10-11T05:22:56.341Z,35.20
2023-10-11T05:25:41.947Z,25.77
2023-10-11T05:28:27.866Z,36.33
2023-10-11T05:31:20.837Z,18.70
2023-10-11T05:34:07.166Z,20.33
2023-10-11T05:36:50.787Z,23.00
2023-10-11T05:39:53.648Z,40.93
2023-10-11T05:42:39.548Z,35.20
2023-10-11T05:45:25.763Z,42.87
2023-10-11T05:48:11.975Z,33.03
2023-10-11T05:50:51.988Z,31.57
2023-10-11T05:53:19.652Z,36.87
2023-10-11T05:55:47.103Z,27.23
2023-10-11T05:58:14.699Z,21.83
2023-10-11T06:00:42.330Z,22.27
2023-10-11T06:03:13.165Z,13.90
2023-10-11T06:05:43.352Z,14.13
2023-10-11T06:08:17.378Z,15.33
2023-10-11T06:10:45.219Z,11.73
2023-10-11T06:13:15.929Z,12.47
2023-10-11T06:15:47.131Z,12.80
2023-10-11T06:18:34.696Z,11.57
2023-10-11T06:21:07.085Z,10.33
2023-10-11T06:23:39.403Z,11.77
2023-10-11T06:26:26.740Z,11.73
2023-10-11T06:29:04.189Z,10.60
2023-10-11T06:31:40.360Z,9.60
2023-10-11T06:34:18.433Z,10.63
2023-10-11T06:36:51.978Z,11.20
2023-10-11T06:40:02.454Z,12.97
2023-10-11T06:42:34.016Z,11.87
2023-10-11T06:45:06.757Z,11.37
2023-10-11T06:47:37.820Z,9.20
2023-10-11T06:50:12.470Z,10.80
2023-10-11T06:52:46.838Z,10.50
2023-10-11T06:55:23.960Z,10.60
2023-10-11T06:57:52.922Z,11.77
2023-10-11T07:00:30.741Z,11.40
2023-10-11T07:03:11.654Z,11.77
2023-10-11T07:05:42.392Z,10.40
2023-10-11T07:08:11.168Z,11.57
2023-10-11T07:10:47.714Z,10.70
2023-10-11T07:13:15.429Z,10.57
2023-10-11T07:15:47.261Z,12.13
2023-10-11T07:18:27.468Z,11.23
2023-10-11T07:21:11.197Z,11.93
2023-10-11T07:24:11.890Z,12.20
2023-10-11T07:26:59.705Z,11.23
2023-10-11T07:29:27.839Z,12.53
2023-10-11T07:31:55.457Z,10.37
2023-10-11T07:34:23.389Z,11.53
2023-10-11T07:36:51.481Z,11.00
2023-10-11T07:39:27.793Z,11.83
2023-10-11T07:42:09.689Z,10.63
2023-10-11T07:44:38.436Z,10.23
2023-10-11T07:47:08.350Z,10.63
2023-10-11T07:49:39.473Z,11.03
2023-10-11T07:52:09.863Z,10.97
2023-10-11T07:54:41.203Z,10.83
2023-10-11T07:57:14.604Z,10.80
2023-10-11T07:59:46.507Z,10.17
2023-10-11T08:02:31.137Z,10.00
2023-10-11T08:04:59.423Z,10.37
2023-10-11T08:07:27.465Z,11.53
2023-10-11T08:09:56.683Z,9.97
2023-10-11T08:12:27.275Z,10.00
2023-10-11T08:14:57.783Z,9.93
2023-10-11T08:17:30.886Z,9.30
2023-10-11T08:19:58.701Z,9.87
2023-10-11T08:22:26.111Z,9.43
2023-10-11T08:25:01.884Z,8.97
2023-10-11T08:27:29.958Z,8.70
2023-10-11T08:30:18.834Z,7.30
2023-10-11T08:32:49.631Z,7.57
2023-10-11T08:35:18.249Z,8.20
2023-10-11T08:37:47.296Z,7.80
2023-10-11T08:40:21.886Z,7.10
2023-10-11T08:42:50.324Z,8.73
2023-10-11T08:45:26.312Z,8.33
2023-10-11T08:47:55.350Z,7.40
2023-10-11T08:50:25.902Z,7.57
2023-10-11T08:52:53.496Z,7.47
2023-10-11T08:55:21.031Z,7.53
2023-10-11T08:57:49.353Z,7.33
2023-10-11T09:00:30.932Z,7.20
2023-10-11T09:03:00.069Z,7.33
2023-10-11T09:05:45.393Z,6.30
2023-10-11T09:08:28.634Z,6.40
2023-10-11T09:11:13.584Z,6.53
2023-10-11T09:13:42.116Z,7.10
2023-10-11T09:16:14.101Z,7.10
2023-10-11T09:18:43.512Z,6.50
2023-10-11T09:21:17.234Z,7.23
2023-10-11T09:23:49.042Z,8.07
2023-10-11T09:26:25.671Z,6.47
2023-10-11T09:28:59.442Z,6.20
2023-10-11T09:31:28.490Z,6.07
2023-10-11T09:34:01.085Z,6.80
2023-10-11T09:36:29.829Z,6.30
2023-10-11T09:38:57.934Z,5.97
2023-10-11T09:41:26.918Z,6.43
2023-10-11T09:44:01.306Z,6.80
2023-10-11T09:46:30.507Z,6.40
2023-10-11T09:48:58.570Z,6.13
2023-10-11T09:51:26.701Z,6.40
2023-10-11T09:53:54.949Z,5.90
2023-10-11T09:56:31.744Z,6.03
2023-10-11T09:59:23.754Z,5.30
2023-10-11T10:02:10.281Z,5.50
2023-10-11T10:04:56.158Z,6.30
2023-10-11T10:07:34.086Z,6.33
2023-10-11T10:10:02.350Z,6.33
2023-10-11T10:12:36.711Z,6.43
2023-10-11T10:15:14.962Z,6.37
2023-10-11T10:18:05.791Z,6.53
2023-10-11T10:20:43.163Z,5.87
2023-10-11T10:23:39.737Z,5.60
2023-10-11T10:26:31.101Z,6.30
2023-10-11T10:28:58.991Z,6.93
2023-10-11T10:31:27.697Z,7.20
2023-10-11T10:34:34.929Z,6.10
2023-10-11T10:37:07.577Z,6.37
2023-10-11T10:39:47.498Z,6.10
2023-10-11T10:42:16.931Z,5.90
2023-10-11T10:44:52.895Z,6.07
2023-10-11T10:47:24.154Z,5.80
2023-10-11T10:49:58.024Z,5.87
2023-10-11T10:52:27.450Z,5.70
2023-10-11T10:55:04.904Z,5.63
2023-10-11T10:57:38.608Z,6.43
2023-10-11T11:00:22.788Z,5.57
2023-10-11T11:02:51.517Z,5.60
2023-10-11T11:05:28.715Z,6.57
2023-10-11T11:08:20.212Z,5.97
2023-10-11T11:10:56.330Z,5.07
2023-10-11T11:13:27.177Z,6.70
2023-10-11T11:15:58.053Z,6.13
2023-10-11T11:18:32.553Z,5.60
2023-10-11T11:21:09.912Z,5.23
2023-10-11T11:23:37.376Z,6.30
2023-10-11T11:26:06.682Z,5.07
2023-10-11T11:28:40.381Z,6.43
2023-10-11T11:31:15.106Z,5.53
2023-10-11T11:34:01.600Z,5.47
2023-10-11T11:36:32.000Z,5.23
2023-10-11T11:39:21.543Z,5.33
2023-10-11T11:41:49.359Z,5.60
2023-10-11T11:44:23.843Z,5.77
2023-10-11T11:46:52.158Z,5.90
2023-10-11T11:49:23.847Z,5.73
2023-10-11T11:51:56.023Z,5.90
2023-10-11T11:54:24.630Z,6.33
2023-10-11T11:56:55.904Z,5.63
2023-10-11T11:59:24.047Z,5.73
2023-10-11T12:01:54.278Z,4.63
2023-10-11T12:04:23.009Z,5.53
2023-10-11T12:06:50.700Z,5.87
2023-10-11T12:09:25.958Z,5.73
2023-10-11T12:11:55.026Z,5.57
2023-10-11T12:14:24.359Z,5.23
2023-10-11T12:16:51.889Z,5.93
2023-10-11T12:19:19.380Z,6.30
2023-10-11T12:21:48.322Z,6.07
2023-10-11T12:24:30.260Z,5.93
2023-10-11T12:27:01.558Z,5.77
2023-10-11T12:29:29.144Z,6.53
2023-10-11T12:31:56.607Z,5.67
2023-10-11T12:34:25.898Z,5.30
2023-10-11T12:36:54.718Z,5.97
2023-10-11T12:39:23.577Z,5.87
2023-10-11T12:41:56.397Z,5.87
2023-10-11T12:44:24.152Z,6.50
2023-10-11T12:46:52.523Z,5.40
2023-10-11T12:49:20.546Z,5.90
2023-10-11T12:51:48.711Z,5.00
2023-10-11T12:54:17.203Z,5.40
2023-10-11T12:56:44.858Z,5.13
2023-10-11T12:59:15.479Z,5.70
2023-10-11T13:01:51.163Z,5.47
2023-10-11T13:04:19.824Z,5.30
2023-10-11T13:06:53.562Z,5.53
2023-10-11T13:09:31.719Z,5.47
2023-10-11T13:11:59.774Z,5.60
2023-10-11T13:14:28.449Z,6.03
2023-10-11T13:16:56.996Z,5.17
2023-10-11T13:19:27.547Z,5.43
2023-10-11T13:21:56.563Z,5.30
2023-10-11T13:24:27.865Z,5.50
2023-10-11T13:26:56.213Z,6.00
2023-10-11T13:29:24.068Z,4.70
2023-10-11T13:31:54.937Z,6.30
2023-10-11T13:34:25.965Z,5.87
2023-10-11T13:36:53.515Z,5.50
2023-10-11T13:39:27.121Z,5.30
2023-10-11T13:42:04.830Z,5.30
2023-10-11T13:44:38.633Z,5.43
2023-10-11T13:47:06.376Z,4.87
2023-10-11T13:49:35.280Z,5.50
2023-10-11T13:52:04.443Z,4.80
2023-10-11T13:54:37.731Z,4.67
2023-10-11T13:57:11.964Z,5.53
2023-10-11T13:59:47.248Z,4.93
2023-10-11T14:02:43.143Z,4.73
2023-10-11T14:05:17.221Z,5.35
2023-10-11T14:07:54.764Z,4.47
2023-10-11T14:10:29.101Z,5.13
2023-10-11T14:13:01.727Z,5.15
2023-10-11T14:15:31.220Z,4.30
2023-10-11T14:17:58.837Z,5.55
2023-10-11T14:20:31.669Z,6.32
2023-10-11T14:23:00.631Z,5.10
2023-10-11T14:25:28.035Z,4.65
2023-10-11T14:27:55.453Z,6.07
2023-10-11T14:30:24.803Z,5.07
2023-10-11T14:32:53.260Z,4.32
2023-10-11T14:35:22.769Z,5.07
2023-10-11T14:37:50.614Z,5.22
2023-10-11T14:40:18.179Z,5.85
2023-10-11T14:42:49.708Z,5.32
2023-10-11T14:45:18.010Z,5.35
2023-10-11T14:47:49.049Z,5.75
2023-10-11T14:50:24.570Z,4.82
2023-10-11T14:52:52.732Z,5.15
2023-10-11T14:55:25.350Z,5.15
2023-10-11T14:57:53.069Z,5.47
2023-10-11T15:00:23.859Z,5.22
2023-10-11T15:02:51.889Z,4.70
2023-10-11T15:05:19.958Z,4.55
2023-10-11T15:07:48.203Z,4.97
2023-10-11T15:10:16.311Z,5.20
2023-10-11T15:12:44.399Z,5.15
2023-10-11T15:15:12.852Z,5.35
2023-10-11T15:17:40.699Z,4.78
2023-10-11T15:20:11.378Z,4.47
2023-10-11T15:22:38.810Z,4.78
2023-10-11T15:25:06.708Z,4.47
2023-10-11T15:27:34.475Z,5.10
2023-10-11T15:30:04.080Z,4.75
2023-10-11T15:32:33.045Z,5.05
2023-10-11T15:35:01.099Z,5.30
2023-10-11T15:37:31.740Z,4.37
2023-10-11T15:39:59.244Z,5.35
2023-10-11T15:42:28.409Z,4.60
2023-10-11T15:44:56.468Z,5.25
2023-10-11T15:47:26.495Z,4.95
2023-10-11T15:50:01.235Z,4.65
2023-10-11T15:52:29.658Z,4.93
2023-10-11T15:54:57.601Z,4.40
2023-10-11T15:57:25.967Z,4.85
2023-10-11T15:59:54.193Z,5.30
2023-10-11T16:02:23.230Z,4.80
2023-10-11T16:04:51.002Z,4.70
2023-10-11T16:07:18.518Z,4.25
2023-10-11T16:09:46.167Z,5.55
2023-10-11T16:12:13.757Z,4.47
2023-10-11T16:14:42.724Z,4.93
2023-10-11T16:17:11.137Z,4.47
2023-10-11T16:19:39.451Z,5.17
2023-10-11T16:22:09.779Z,4.43
2023-10-11T16:24:39.158Z,4.73
2023-10-11T16:27:07.527Z,4.37
2023-10-11T16:29:36.220Z,4.37
2023-10-11T16:32:03.731Z,4.80
2023-10-11T16:34:31.200Z,4.73
2023-10-11T16:36:58.632Z,4.73
2023-10-11T16:39:35.983Z,4.70
2023-10-11T16:42:06.844Z,4.43
2023-10-11T16:44:34.687Z,4.67
2023-10-11T16:47:07.653Z,3.57
2023-10-11T16:49:35.164Z,3.53
2023-10-11T16:52:02.762Z,4.50
2023-10-11T16:54:30.233Z,4.27
2023-10-11T16:56:57.686Z,4.20
2023-10-11T16:59:25.153Z,4.33
2023-10-11T17:01:52.610Z,3.87
2023-10-11T17:04:21.778Z,4.67
2023-10-11T17:06:49.465Z,3.90
2023-10-11T17:09:17.025Z,4.40
2023-10-11T17:11:44.504Z,4.30
2023-10-11T17:14:11.981Z,4.73
2023-10-11T17:16:39.456Z,5.90
2023-10-11T17:19:09.963Z,4.00
2023-10-11T17:21:39.724Z,4.83
2023-10-11T17:24:11.169Z,4.50
2023-10-11T17:26:38.724Z,4.47
2023-10-11T17:29:07.150Z,4.17
2023-10-11T17:31:34.960Z,4.33
2023-10-11T17:34:02.420Z,4.80
2023-10-11T17:36:30.089Z,4.77
2023-10-11T17:38:57.611Z,3.63
2023-10-11T17:41:26.398Z,4.00
2023-10-11T17:43:53.990Z,3.90
2023-10-11T17:46:21.519Z,4.77
2023-10-11T17:48:49.437Z,4.70
2023-10-11T17:51:18.125Z,4.33
2023-10-11T17:53:46.159Z,4.23
2023-10-11T17:56:16.984Z,4.07
2023-10-11T17:58:48.644Z,3.87
2023-10-11T18:01:19.128Z,4.47
2023-10-11T18:03:47.187Z,3.63
2023-10-11T18:06:14.866Z,5.27
2023-10-11T18:08:45.203Z,4.10
2023-10-11T18:11:13.538Z,5.60
2023-10-11T18:13:41.436Z,4.50
2023-10-11T18:16:09.011Z,4.87
2023-10-11T18:18:36.516Z,5.10
2023-10-11T18:21:03.937Z,4.30
2023-10-11T18:23:31.501Z,4.17
2023-10-11T18:26:00.525Z,4.80
2023-10-11T18:28:28.969Z,4.90
2023-10-11T18:30:57.718Z,4.63
2023-10-11T18:33:25.286Z,4.27
2023-10-11T18:35:54.868Z,4.43
2023-10-11T18:38:22.344Z,4.47
2023-10-11T18:40:49.881Z,4.40
2023-10-11T18:43:17.353Z,4.37
2023-10-11T18:45:44.918Z,4.67
2023-10-11T18:48:12.633Z,5.27
2023-10-11T18:50:43.016Z,4.70
2023-10-11T18:53:10.442Z,4.97
2023-10-11T18:55:44.056Z,4.97
2023-10-11T18:58:11.753Z,4.57
2023-10-11T19:00:39.910Z,4.70
2023-10-11T19:03:08.643Z,5.43
2023-10-11T19:05:36.278Z,4.33
2023-10-11T19:08:05.297Z,4.77
2023-10-11T19:10:33.042Z,4.63
2023-10-11T19:13:00.723Z,4.63
2023-10-11T19:15:33.653Z,4.90
2023-10-11T19:18:07.065Z,4.87
2023-10-11T19:20:34.837Z,4.47
2023-10-11T19:23:03.444Z,4.33
2023-10-11T19:25:32.002Z,4.77
2023-10-11T19:28:00.344Z,5.03
2023-10-11T19:30:28.845Z,5.23
2023-10-11T19:32:56.490Z,5.00
2023-10-11T19:35:25.154Z,5.77
2023-10-11T19:37:54.143Z,4.47
2023-10-11T19:40:26.406Z,4.90
2023-10-11T19:42:55.031Z,5.97
2023-10-11T19:45:26.198Z,5.27
2023-10-11T19:47:54.679Z,5.67
2023-10-11T19:50:22.815Z,5.33
2023-10-11T19:52:52.391Z,5.07
2023-10-11T19:55:23.252Z,5.23
2023-10-11T19:57:55.103Z,5.33
2023-10-11T20:00:23.704Z,5.43
2023-10-11T20:02:52.237Z,5.10
2023-10-11T20:05:20.223Z,5.10
2023-10-11T20:07:50.528Z,6.50
2023-10-11T20:10:18.375Z,6.07
2023-10-11T20:12:46.933Z,5.20
2023-10-11T20:15:15.392Z,5.90
2023-10-11T20:17:46.201Z,5.30
2023-10-11T20:20:14.252Z,5.30
2023-10-11T20:22:42.816Z,5.53
2023-10-11T20:25:12.455Z,6.47
2023-10-11T20:27:44.975Z,5.67
2023-10-11T20:30:17.292Z,5.87
2023-10-11T20:32:48.461Z,5.83
2023-10-11T20:35:19.224Z,5.40
2023-10-11T20:37:46.650Z,5.87
2023-10-11T20:40:23.065Z,5.47
2023-10-11T20:42:59.916Z,6.27
2023-10-11T20:45:28.229Z,6.30
2023-10-11T20:47:56.674Z,6.10
2023-10-11T20:50:34.818Z,6.67
2023-10-11T20:53:03.151Z,6.57
2023-10-11T20:55:33.192Z,5.73
2023-10-11T20:58:34.234Z,6.10
2023-10-11T21:01:07.264Z,6.00
2023-10-11T21:03:36.928Z,5.87
2023-10-11T21:06:09.536Z,6.90
2023-10-11T21:08:36.666Z,6.30
2023-10-11T21:11:05.173Z,6.27
2023-10-11T21:13:32.460Z,6.60
2023-10-11T21:16:03.878Z,7.33
2023-10-11T21:18:32.736Z,6.73
2023-10-11T21:20:59.850Z,6.57
2023-10-11T21:23:26.863Z,7.17
2023-10-11T21:25:56.808Z,7.27
2023-10-11T21:28:25.574Z,6.47
2023-10-11T21:30:53.059Z,7.03
2023-10-11T21:33:20.872Z,6.90
2023-10-11T21:35:48.178Z,7.10
2023-10-11T21:38:18.077Z,6.10
2023-10-11T21:40:46.192Z,6.60
2023-10-11T21:43:14.064Z,6.90
2023-10-11T21:45:42.452Z,7.00
2023-10-11T21:48:14.815Z,7.00
2023-10-11T21:50:44.670Z,7.67
2023-10-11T21:53:12.494Z,8.03
2023-10-11T21:55:40.967Z,8.00
2023-10-11T21:58:08.185Z,7.30
2023-10-11T22:00:48.320Z,6.83
2023-10-11T22:03:20.441Z,7.90
2023-10-11T22:05:52.249Z,6.83
2023-10-11T22:08:23.642Z,7.23
2023-10-11T22:10:52.656Z,6.97
2023-10-11T22:13:22.925Z,7.37
2023-10-11T22:15:54.738Z,6.57
2023-10-11T22:18:23.058Z,7.33
2023-10-11T22:21:18.422Z,7.13
2023-10-11T22:23:45.507Z,6.60
2023-10-11T22:26:15.182Z,7.10
2023-10-11T22:28:42.322Z,7.27
2023-10-11T22:31:13.265Z,7.53
2023-10-11T22:33:44.858Z,7.40
2023-10-11T22:36:17.898Z,7.13
2023-10-11T22:38:46.942Z,7.43
2023-10-11T22:41:18.203Z,7.67
2023-10-11T22:43:46.005Z,6.30
2023-10-11T22:46:14.207Z,8.00
2023-10-11T22:48:41.512Z,7.67
2023-10-11T22:51:08.747Z,9.07
2023-10-11T22:53:40.031Z,8.10
2023-10-11T22:56:17.833Z,9.30
2023-10-11T22:58:45.260Z,9.57
2023-10-11T23:01:16.459Z,10.23
2023-10-11T23:03:44.143Z,10.53
2023-10-11T23:06:11.556Z,11.17
2023-10-11T23:08:38.758Z,10.90
2023-10-11T23:11:19.810Z,11.03
2023-10-11T23:13:50.327Z,10.70
2023-10-11T23:16:22.492Z,10.53
2023-10-11T23:18:50.659Z,10.67
2023-10-11T23:21:22.088Z,11.23
2023-10-11T23:23:55.221Z,10.23
2023-10-11T23:26:26.210Z,9.73
2023-10-11T23:29:04.354Z,9.30
2023-10-11T23:31:31.825Z,9.33
2023-10-11T23:33:58.954Z,8.93
2023-10-11T23:36:35.938Z,9.47
2023-10-11T23:39:08.531Z,7.93
2023-10-11T23:41:37.692Z,8.23
2023-10-11T23:44:20.702Z,7.67
2023-10-11T23:46:57.736Z,8.73
2023-10-11T23:52:07.602Z,8.83
2023-10-11T23:54:40.102Z,8.30
2023-10-11T23:57:19.062Z,8.23
2023-10-11T23:59:46.800Z,8.23
